<?xml version='1.0' encoding='utf-8'?>
<gpx xmlns="http://www.topografix.com/GPX/1/1" xmlns:xsi="http://www.w3.org/2001/XMLSchema-instance" version="v1.1.5" creator="iTravel Tech Inc. - http://www.itravel-tech.com" xsi:schemaLocation="http://www.topografix.com/GPX/1/1 http://www.topografix.com/GPX/1/1/gpx.xsd http://www.topografix.com/GPX/gpx_overlay/0/3 http://www.topografix.com/GPX/gpx_overlay/0/3/gpx_overlay.xsd http://www.topografix.com/GPX/gpx_modified/0/1 http://www.topografix.com/GPX/gpx_modified/0/1/gpx_modified.xsd">
<trk>
<name>Holux2012/04/29_12:54</name>
<trkseg>
<trkpt lat="43.158974" lon="19.292824">
<ele>829.2</ele>
<time>2012-04-29T09:54:05Z</time>
<desc>lat.=43.158974, lon.=19.292824, Alt.=827.055176m. Speed=1.116000m/h.</desc>
<speed>0.310000</speed>
</trkpt>
<trkpt lat="43.159073" lon="19.292822">
<ele>828.9</ele>
<time>2012-04-29T09:54:10Z</time>
<desc>lat.=43.159073, lon.=19.292822, Alt.=826.586426m. Speed=0.576000m/h.</desc>
<speed>0.160000</speed>
</trkpt>
<trkpt lat="43.158947" lon="19.293730">
<ele>841.3</ele>
<time>2012-04-29T09:57:45Z</time>
<desc>lat.=43.158947, lon.=19.293730, Alt.=833.930176m. Speed=7.920000m/h.</desc>
<speed>2.200000</speed>
</trkpt>
<trkpt lat="43.159180" lon="19.294184">
<ele>844.5</ele>
<time>2012-04-29T09:58:05Z</time>
<desc>lat.=43.159180, lon.=19.294184, Alt.=837.570801m. Speed=5.688000m/h.</desc>
<speed>1.580000</speed>
</trkpt>
<trkpt lat="43.159374" lon="19.294289">
<ele>845.0</ele>
<time>2012-04-29T09:58:30Z</time>
<desc>lat.=43.159374, lon.=19.294289, Alt.=837.695801m. Speed=0.036000m/h.</desc>
<speed>0.010000</speed>
</trkpt>
<trkpt lat="43.160198" lon="19.293846">
<ele>839.6</ele>
<time>2012-04-29T09:59:00Z</time>
<desc>lat.=43.160198, lon.=19.293846, Alt.=830.586426m. Speed=22.032000m/h.</desc>
<speed>6.120000</speed>
</trkpt>
<trkpt lat="43.160431" lon="19.292475">
<ele>827.8</ele>
<time>2012-04-29T09:59:20Z</time>
<desc>lat.=43.160431, lon.=19.292475, Alt.=825.805176m. Speed=17.351999m/h.</desc>
<speed>4.820000</speed>
</trkpt>
<trkpt lat="43.160072" lon="19.291891">
<ele>822.2</ele>
<time>2012-04-29T09:59:30Z</time>
<desc>lat.=43.160072, lon.=19.291891, Alt.=820.492676m. Speed=19.368000m/h.</desc>
<speed>5.380000</speed>
</trkpt>
<trkpt lat="43.158691" lon="19.291018">
<ele>821.2</ele>
<time>2012-04-29T10:00:10Z</time>
<desc>lat.=43.158691, lon.=19.291018, Alt.=822.148926m. Speed=15.732000m/h.</desc>
<speed>4.370000</speed>
</trkpt>
<trkpt lat="43.159340" lon="19.290501">
<ele>811.6</ele>
<time>2012-04-29T10:00:25Z</time>
<desc>lat.=43.159340, lon.=19.290501, Alt.=812.133301m. Speed=19.548000m/h.</desc>
<speed>5.430000</speed>
</trkpt>
<trkpt lat="43.160435" lon="19.290474">
<ele>807.4</ele>
<time>2012-04-29T10:00:50Z</time>
<desc>lat.=43.160435, lon.=19.290474, Alt.=808.773926m. Speed=18.756001m/h.</desc>
<speed>5.210000</speed>
</trkpt>
<trkpt lat="43.160748" lon="19.289761">
<ele>800.4</ele>
<time>2012-04-29T10:01:05Z</time>
<desc>lat.=43.160748, lon.=19.289761, Alt.=803.617676m. Speed=16.559999m/h.</desc>
<speed>4.600000</speed>
</trkpt>
<trkpt lat="43.160423" lon="19.288506">
<ele>777.6</ele>
<time>2012-04-29T10:01:30Z</time>
<desc>lat.=43.160423, lon.=19.288506, Alt.=797.148926m. Speed=12.780000m/h.</desc>
<speed>3.550000</speed>
</trkpt>
<trkpt lat="43.160572" lon="19.287491">
<ele>783.5</ele>
<time>2012-04-29T10:02:00Z</time>
<desc>lat.=43.160572, lon.=19.287491, Alt.=796.320801m. Speed=12.240000m/h.</desc>
<speed>3.400000</speed>
</trkpt>
<trkpt lat="43.159836" lon="19.285238">
<ele>767.7</ele>
<time>2012-04-29T10:02:55Z</time>
<desc>lat.=43.159836, lon.=19.285238, Alt.=786.133301m. Speed=16.667999m/h.</desc>
<speed>4.630000</speed>
</trkpt>
<trkpt lat="43.159969" lon="19.284157">
<ele>763.6</ele>
<time>2012-04-29T10:03:10Z</time>
<desc>lat.=43.159969, lon.=19.284157, Alt.=778.289551m. Speed=22.139999m/h.</desc>
<speed>6.150000</speed>
</trkpt>
<trkpt lat="43.159843" lon="19.282534">
<ele>748.2</ele>
<time>2012-04-29T10:03:30Z</time>
<desc>lat.=43.159843, lon.=19.282534, Alt.=765.133301m. Speed=22.068001m/h.</desc>
<speed>6.130000</speed>
</trkpt>
<trkpt lat="43.160648" lon="19.280619">
<ele>745.2</ele>
<time>2012-04-29T10:03:55Z</time>
<desc>lat.=43.160648, lon.=19.280619, Alt.=747.820801m. Speed=25.020000m/h.</desc>
<speed>6.950000</speed>
</trkpt>
<trkpt lat="43.160507" lon="19.280188">
<ele>736.2</ele>
<time>2012-04-29T10:04:20Z</time>
<desc>lat.=43.160507, lon.=19.280188, Alt.=748.852051m. Speed=0.180000m/h.</desc>
<speed>0.050000</speed>
</trkpt>
<trkpt lat="43.160606" lon="19.278994">
<ele>732.8</ele>
<time>2012-04-29T10:05:00Z</time>
<desc>lat.=43.160606, lon.=19.278994, Alt.=744.539551m. Speed=20.771999m/h.</desc>
<speed>5.770000</speed>
</trkpt>
<trkpt lat="43.160244" lon="19.278526">
<ele>725.9</ele>
<time>2012-04-29T10:05:15Z</time>
<desc>lat.=43.160244, lon.=19.278526, Alt.=745.242676m. Speed=1.260000m/h.</desc>
<speed>0.350000</speed>
</trkpt>
<trkpt lat="43.160618" lon="19.278711">
<ele>732.1</ele>
<time>2012-04-29T10:07:05Z</time>
<desc>lat.=43.160618, lon.=19.278711, Alt.=752.211426m. Speed=0.108000m/h.</desc>
<speed>0.030000</speed>
</trkpt>
<trkpt lat="43.160656" lon="19.279245">
<ele>736.2</ele>
<time>2012-04-29T10:08:45Z</time>
<desc>lat.=43.160656, lon.=19.279245, Alt.=752.305176m. Speed=4.248000m/h.</desc>
<speed>1.180000</speed>
</trkpt>
<trkpt lat="43.160812" lon="19.279055">
<ele>740.4</ele>
<time>2012-04-29T10:09:40Z</time>
<desc>lat.=43.160812, lon.=19.279055, Alt.=752.805176m. Speed=2.088000m/h.</desc>
<speed>0.580000</speed>
</trkpt>
<trkpt lat="43.160995" lon="19.279835">
<ele>751.9</ele>
<time>2012-04-29T10:10:55Z</time>
<desc>lat.=43.160995, lon.=19.279835, Alt.=762.242676m. Speed=1.692000m/h.</desc>
<speed>0.470000</speed>
</trkpt>
<trkpt lat="43.161938" lon="19.279348">
<ele>774.6</ele>
<time>2012-04-29T10:17:25Z</time>
<desc>lat.=43.161938, lon.=19.279348, Alt.=783.289551m. Speed=3.600000m/h.</desc>
<speed>1.000000</speed>
</trkpt>
<trkpt lat="43.162334" lon="19.280043">
<ele>785.1</ele>
<time>2012-04-29T10:18:20Z</time>
<desc>lat.=43.162334, lon.=19.280043, Alt.=794.086426m. Speed=4.968000m/h.</desc>
<speed>1.380000</speed>
</trkpt>
<trkpt lat="43.162609" lon="19.280216">
<ele>793.7</ele>
<time>2012-04-29T10:19:15Z</time>
<desc>lat.=43.162609, lon.=19.280216, Alt.=798.820801m. Speed=3.924000m/h.</desc>
<speed>1.090000</speed>
</trkpt>
<trkpt lat="43.162678" lon="19.280636">
<ele>800.9</ele>
<time>2012-04-29T10:22:10Z</time>
<desc>lat.=43.162678, lon.=19.280636, Alt.=801.914551m. Speed=2.808000m/h.</desc>
<speed>0.780000</speed>
</trkpt>
<trkpt lat="43.163425" lon="19.281328">
<ele>825.2</ele>
<time>2012-04-29T10:24:50Z</time>
<desc>lat.=43.163425, lon.=19.281328, Alt.=813.367676m. Speed=2.808000m/h.</desc>
<speed>0.780000</speed>
</trkpt>
<trkpt lat="43.163654" lon="19.282032">
<ele>855.8</ele>
<time>2012-04-29T10:29:20Z</time>
<desc>lat.=43.163654, lon.=19.282032, Alt.=835.508301m. Speed=2.736000m/h.</desc>
<speed>0.760000</speed>
</trkpt>
<trkpt lat="43.163914" lon="19.282171">
<ele>862.9</ele>
<time>2012-04-29T10:30:30Z</time>
<desc>lat.=43.163914, lon.=19.282171, Alt.=851.602051m. Speed=0.864000m/h.</desc>
<speed>0.240000</speed>
</trkpt>
<trkpt lat="43.163933" lon="19.282364">
<ele>866.0</ele>
<time>2012-04-29T10:31:10Z</time>
<desc>lat.=43.163933, lon.=19.282364, Alt.=859.273926m. Speed=1.620000m/h.</desc>
<speed>0.450000</speed>
</trkpt>
<trkpt lat="43.164169" lon="19.282387">
<ele>870.3</ele>
<time>2012-04-29T10:31:50Z</time>
<desc>lat.=43.164169, lon.=19.282387, Alt.=864.695801m. Speed=1.656000m/h.</desc>
<speed>0.460000</speed>
</trkpt>
<trkpt lat="43.163994" lon="19.282604">
<ele>874.2</ele>
<time>2012-04-29T10:33:05Z</time>
<desc>lat.=43.163994, lon.=19.282604, Alt.=874.617676m. Speed=1.476000m/h.</desc>
<speed>0.410000</speed>
</trkpt>
<trkpt lat="43.164379" lon="19.282692">
<ele>877.7</ele>
<time>2012-04-29T10:33:50Z</time>
<desc>lat.=43.164379, lon.=19.282692, Alt.=884.570801m. Speed=1.692000m/h.</desc>
<speed>0.470000</speed>
</trkpt>
<trkpt lat="43.164063" lon="19.283350">
<ele>887.4</ele>
<time>2012-04-29T10:35:55Z</time>
<desc>lat.=43.164063, lon.=19.283350, Alt.=889.445801m. Speed=0.360000m/h.</desc>
<speed>0.100000</speed>
</trkpt>
<trkpt lat="43.164639" lon="19.283407">
<ele>882.7</ele>
<time>2012-04-29T10:36:30Z</time>
<desc>lat.=43.164639, lon.=19.283407, Alt.=883.398926m. Speed=15.696000m/h.</desc>
<speed>4.360000</speed>
</trkpt>
<trkpt lat="43.164860" lon="19.283215">
<ele>880.4</ele>
<time>2012-04-29T10:36:35Z</time>
<desc>lat.=43.164860, lon.=19.283215, Alt.=881.461426m. Speed=22.392000m/h.</desc>
<speed>6.220000</speed>
</trkpt>
<trkpt lat="43.164898" lon="19.282875">
<ele>878.7</ele>
<time>2012-04-29T10:36:40Z</time>
<desc>lat.=43.164898, lon.=19.282875, Alt.=882.555176m. Speed=11.592000m/h.</desc>
<speed>3.220000</speed>
</trkpt>
<trkpt lat="43.164730" lon="19.282438">
<ele>884.0</ele>
<time>2012-04-29T10:36:55Z</time>
<desc>lat.=43.164730, lon.=19.282438, Alt.=884.477051m. Speed=6.552000m/h.</desc>
<speed>1.820000</speed>
</trkpt>
<trkpt lat="43.164948" lon="19.281881">
<ele>888.3</ele>
<time>2012-04-29T10:37:15Z</time>
<desc>lat.=43.164948, lon.=19.281881, Alt.=886.867676m. Speed=10.332000m/h.</desc>
<speed>2.870000</speed>
</trkpt>
<trkpt lat="43.165829" lon="19.282097">
<ele>897.0</ele>
<time>2012-04-29T10:38:05Z</time>
<desc>lat.=43.165829, lon.=19.282097, Alt.=900.727051m. Speed=4.932000m/h.</desc>
<speed>1.370000</speed>
</trkpt>
<trkpt lat="43.166054" lon="19.281610">
<ele>898.8</ele>
<time>2012-04-29T10:40:00Z</time>
<desc>lat.=43.166054, lon.=19.281610, Alt.=897.836426m. Speed=0.036000m/h.</desc>
<speed>0.010000</speed>
</trkpt>
<trkpt lat="43.165817" lon="19.279972">
<ele>895.0</ele>
<time>2012-04-29T10:48:10Z</time>
<desc>lat.=43.165817, lon.=19.279972, Alt.=903.773926m. Speed=0.000000m/h.</desc>
<speed>0.000000</speed>
</trkpt>
<trkpt lat="43.165874" lon="19.279530">
<ele>894.1</ele>
<time>2012-04-29T10:55:10Z</time>
<desc>lat.=43.165874, lon.=19.279530, Alt.=901.602051m. Speed=18.072001m/h.</desc>
<speed>5.020000</speed>
</trkpt>
<trkpt lat="43.166241" lon="19.278440">
<ele>894.1</ele>
<time>2012-04-29T10:55:30Z</time>
<desc>lat.=43.166241, lon.=19.278440, Alt.=895.820801m. Speed=16.164000m/h.</desc>
<speed>4.490000</speed>
</trkpt>
<trkpt lat="43.168072" lon="19.275215">
<ele>878.2</ele>
<time>2012-04-29T10:56:25Z</time>
<desc>lat.=43.168072, lon.=19.275215, Alt.=895.789551m. Speed=2.952000m/h.</desc>
<speed>0.820000</speed>
</trkpt>
<trkpt lat="43.168690" lon="19.273623">
<ele>871.3</ele>
<time>2012-04-29T10:56:55Z</time>
<desc>lat.=43.168690, lon.=19.273623, Alt.=883.320801m. Speed=28.584000m/h.</desc>
<speed>7.940000</speed>
</trkpt>
<trkpt lat="43.168976" lon="19.271915">
<ele>869.6</ele>
<time>2012-04-29T10:57:30Z</time>
<desc>lat.=43.168976, lon.=19.271915, Alt.=872.336426m. Speed=18.035999m/h.</desc>
<speed>5.010000</speed>
</trkpt>
<trkpt lat="43.169342" lon="19.271019">
<ele>861.1</ele>
<time>2012-04-29T10:57:40Z</time>
<desc>lat.=43.169342, lon.=19.271019, Alt.=864.758301m. Speed=33.155998m/h.</desc>
<speed>9.210000</speed>
</trkpt>
<trkpt lat="43.169434" lon="19.269836">
<ele>868.0</ele>
<time>2012-04-29T10:58:10Z</time>
<desc>lat.=43.169434, lon.=19.269836, Alt.=864.305176m. Speed=0.108000m/h.</desc>
<speed>0.030000</speed>
</trkpt>
<trkpt lat="43.171093" lon="19.269472">
<ele>861.2</ele>
<time>2012-04-29T10:59:45Z</time>
<desc>lat.=43.171093, lon.=19.269472, Alt.=865.055176m. Speed=25.308001m/h.</desc>
<speed>7.030000</speed>
</trkpt>
<trkpt lat="43.171730" lon="19.267992">
<ele>854.5</ele>
<time>2012-04-29T11:00:30Z</time>
<desc>lat.=43.171730, lon.=19.267992, Alt.=857.180176m. Speed=21.636000m/h.</desc>
<speed>6.010000</speed>
</trkpt>
<trkpt lat="43.172642" lon="19.267229">
<ele>846.0</ele>
<time>2012-04-29T11:00:45Z</time>
<desc>lat.=43.172642, lon.=19.267229, Alt.=847.008301m. Speed=22.896000m/h.</desc>
<speed>6.360000</speed>
</trkpt>
<trkpt lat="43.173004" lon="19.265711">
<ele>842.7</ele>
<time>2012-04-29T11:01:05Z</time>
<desc>lat.=43.173004, lon.=19.265711, Alt.=842.023926m. Speed=25.596001m/h.</desc>
<speed>7.110000</speed>
</trkpt>
<trkpt lat="43.173702" lon="19.265232">
<ele>838.8</ele>
<time>2012-04-29T11:01:20Z</time>
<desc>lat.=43.173702, lon.=19.265232, Alt.=843.664551m. Speed=19.332001m/h.</desc>
<speed>5.370000</speed>
</trkpt>
<trkpt lat="43.173882" lon="19.265324">
<ele>836.8</ele>
<time>2012-04-29T11:01:25Z</time>
<desc>lat.=43.173882, lon.=19.265324, Alt.=838.289551m. Speed=14.652000m/h.</desc>
<speed>4.070000</speed>
</trkpt>
<trkpt lat="43.173931" lon="19.265854">
<ele>841.8</ele>
<time>2012-04-29T11:01:35Z</time>
<desc>lat.=43.173931, lon.=19.265854, Alt.=832.492676m. Speed=14.220000m/h.</desc>
<speed>3.950000</speed>
</trkpt>
<trkpt lat="43.174202" lon="19.265667">
<ele>832.3</ele>
<time>2012-04-29T11:01:45Z</time>
<desc>lat.=43.174202, lon.=19.265667, Alt.=829.102051m. Speed=14.652000m/h.</desc>
<speed>4.070000</speed>
</trkpt>
<trkpt lat="43.175541" lon="19.263203">
<ele>802.5</ele>
<time>2012-04-29T11:02:30Z</time>
<desc>lat.=43.175541, lon.=19.263203, Alt.=807.617676m. Speed=26.496000m/h.</desc>
<speed>7.360000</speed>
</trkpt>
<trkpt lat="43.175949" lon="19.261633">
<ele>793.3</ele>
<time>2012-04-29T11:03:05Z</time>
<desc>lat.=43.175949, lon.=19.261633, Alt.=802.852051m. Speed=0.108000m/h.</desc>
<speed>0.030000</speed>
</trkpt>
<trkpt lat="43.177113" lon="19.260149">
<ele>784.2</ele>
<time>2012-04-29T11:03:45Z</time>
<desc>lat.=43.177113, lon.=19.260149, Alt.=787.898926m. Speed=6.300000m/h.</desc>
<speed>1.750000</speed>
</trkpt>
<trkpt lat="43.178059" lon="19.259401">
<ele>786.4</ele>
<time>2012-04-29T11:04:10Z</time>
<desc>lat.=43.178059, lon.=19.259401, Alt.=786.570801m. Speed=22.968000m/h.</desc>
<speed>6.380000</speed>
</trkpt>
<trkpt lat="43.178749" lon="19.258461">
<ele>777.1</ele>
<time>2012-04-29T11:04:30Z</time>
<desc>lat.=43.178749, lon.=19.258461, Alt.=782.898926m. Speed=17.388000m/h.</desc>
<speed>4.830000</speed>
</trkpt>
<trkpt lat="43.182320" lon="19.259172">
<ele>746.6</ele>
<time>2012-04-29T11:05:40Z</time>
<desc>lat.=43.182320, lon.=19.259172, Alt.=744.570801m. Speed=19.656000m/h.</desc>
<speed>5.460000</speed>
</trkpt>
<trkpt lat="43.182541" lon="19.259335">
<ele>744.0</ele>
<time>2012-04-29T11:05:45Z</time>
<desc>lat.=43.182541, lon.=19.259335, Alt.=739.664551m. Speed=19.440001m/h.</desc>
<speed>5.400000</speed>
</trkpt>
<trkpt lat="43.182831" lon="19.260153">
<ele>737.9</ele>
<time>2012-04-29T11:06:10Z</time>
<desc>lat.=43.182831, lon.=19.260153, Alt.=730.258301m. Speed=0.000000m/h.</desc>
<speed>0.000000</speed>
</trkpt>
<trkpt lat="43.182865" lon="19.259155">
<ele>724.9</ele>
<time>2012-04-29T11:08:35Z</time>
<desc>lat.=43.182865, lon.=19.259155, Alt.=721.836426m. Speed=6.516000m/h.</desc>
<speed>1.810000</speed>
</trkpt>
<trkpt lat="43.183609" lon="19.258127">
<ele>714.7</ele>
<time>2012-04-29T11:14:25Z</time>
<desc>lat.=43.183609, lon.=19.258127, Alt.=728.461426m. Speed=7.668000m/h.</desc>
<speed>2.130000</speed>
</trkpt>
<trkpt lat="43.183632" lon="19.257498">
<ele>712.9</ele>
<time>2012-04-29T11:14:50Z</time>
<desc>lat.=43.183632, lon.=19.257498, Alt.=733.617676m. Speed=6.048000m/h.</desc>
<speed>1.680000</speed>
</trkpt>
<trkpt lat="43.183331" lon="19.256956">
<ele>719.0</ele>
<time>2012-04-29T11:16:40Z</time>
<desc>lat.=43.183331, lon.=19.256956, Alt.=739.445801m. Speed=4.212000m/h.</desc>
<speed>1.170000</speed>
</trkpt>
<trkpt lat="43.184269" lon="19.255426">
<ele>745.5</ele>
<time>2012-04-29T11:17:55Z</time>
<desc>lat.=43.184269, lon.=19.255426, Alt.=756.055176m. Speed=9.144000m/h.</desc>
<speed>2.540000</speed>
</trkpt>
<trkpt lat="43.184494" lon="19.253601">
<ele>755.3</ele>
<time>2012-04-29T11:19:15Z</time>
<desc>lat.=43.184494, lon.=19.253601, Alt.=772.102051m. Speed=5.508000m/h.</desc>
<speed>1.530000</speed>
</trkpt>
<trkpt lat="43.185196" lon="19.252628">
<ele>777.9</ele>
<time>2012-04-29T11:21:00Z</time>
<desc>lat.=43.185196, lon.=19.252628, Alt.=789.680176m. Speed=3.960000m/h.</desc>
<speed>1.100000</speed>
</trkpt>
<trkpt lat="43.184986" lon="19.251444">
<ele>787.1</ele>
<time>2012-04-29T11:22:40Z</time>
<desc>lat.=43.184986, lon.=19.251444, Alt.=806.227051m. Speed=1.908000m/h.</desc>
<speed>0.530000</speed>
</trkpt>
<trkpt lat="43.185760" lon="19.252045">
<ele>807.1</ele>
<time>2012-04-29T11:24:15Z</time>
<desc>lat.=43.185760, lon.=19.252045, Alt.=821.023926m. Speed=5.076000m/h.</desc>
<speed>1.410000</speed>
</trkpt>
<trkpt lat="43.185665" lon="19.250557">
<ele>820.2</ele>
<time>2012-04-29T11:25:40Z</time>
<desc>lat.=43.185665, lon.=19.250557, Alt.=840.602051m. Speed=2.880000m/h.</desc>
<speed>0.800000</speed>
</trkpt>
<trkpt lat="43.185814" lon="19.249125">
<ele>845.3</ele>
<time>2012-04-29T11:34:30Z</time>
<desc>lat.=43.185814, lon.=19.249125, Alt.=857.289551m. Speed=3.132000m/h.</desc>
<speed>0.870000</speed>
</trkpt>
<trkpt lat="43.185520" lon="19.247881">
<ele>856.1</ele>
<time>2012-04-29T11:36:15Z</time>
<desc>lat.=43.185520, lon.=19.247881, Alt.=876.461426m. Speed=5.544000m/h.</desc>
<speed>1.540000</speed>
</trkpt>
<trkpt lat="43.185570" lon="19.246412">
<ele>865.7</ele>
<time>2012-04-29T11:37:20Z</time>
<desc>lat.=43.185570, lon.=19.246412, Alt.=884.414551m. Speed=6.552000m/h.</desc>
<speed>1.820000</speed>
</trkpt>
<trkpt lat="43.185013" lon="19.244093">
<ele>891.0</ele>
<time>2012-04-29T11:39:40Z</time>
<desc>lat.=43.185013, lon.=19.244093, Alt.=908.867676m. Speed=4.392000m/h.</desc>
<speed>1.220000</speed>
</trkpt>
<trkpt lat="43.185078" lon="19.243639">
<ele>900.1</ele>
<time>2012-04-29T12:00:45Z</time>
<desc>lat.=43.185078, lon.=19.243639, Alt.=902.648926m. Speed=0.036000m/h.</desc>
<speed>0.010000</speed>
</trkpt>
<trkpt lat="43.185020" lon="19.244162">
<ele>888.4</ele>
<time>2012-04-29T12:32:35Z</time>
<desc>lat.=43.185020, lon.=19.244162, Alt.=908.273926m. Speed=16.379999m/h.</desc>
<speed>4.550000</speed>
</trkpt>
<trkpt lat="43.185520" lon="19.246292">
<ele>864.9</ele>
<time>2012-04-29T12:33:15Z</time>
<desc>lat.=43.185520, lon.=19.246292, Alt.=886.039551m. Speed=20.916000m/h.</desc>
<speed>5.810000</speed>
</trkpt>
<trkpt lat="43.185478" lon="19.247206">
<ele>860.2</ele>
<time>2012-04-29T12:33:30Z</time>
<desc>lat.=43.185478, lon.=19.247206, Alt.=882.758301m. Speed=14.724000m/h.</desc>
<speed>4.090000</speed>
</trkpt>
<trkpt lat="43.185791" lon="19.249184">
<ele>843.1</ele>
<time>2012-04-29T12:36:40Z</time>
<desc>lat.=43.185791, lon.=19.249184, Alt.=858.773926m. Speed=9.792000m/h.</desc>
<speed>2.720000</speed>
</trkpt>
<trkpt lat="43.185596" lon="19.251251">
<ele>810.4</ele>
<time>2012-04-29T12:37:25Z</time>
<desc>lat.=43.185596, lon.=19.251251, Alt.=837.680176m. Speed=13.104000m/h.</desc>
<speed>3.640000</speed>
</trkpt>
<trkpt lat="43.185703" lon="19.251900">
<ele>806.9</ele>
<time>2012-04-29T12:37:40Z</time>
<desc>lat.=43.185703, lon.=19.251900, Alt.=830.352051m. Speed=8.604000m/h.</desc>
<speed>2.390000</speed>
</trkpt>
<trkpt lat="43.185585" lon="19.251995">
<ele>801.4</ele>
<time>2012-04-29T12:37:50Z</time>
<desc>lat.=43.185585, lon.=19.251995, Alt.=826.367676m. Speed=5.940000m/h.</desc>
<speed>1.650000</speed>
</trkpt>
<trkpt lat="43.184967" lon="19.251371">
<ele>787.5</ele>
<time>2012-04-29T12:38:10Z</time>
<desc>lat.=43.184967, lon.=19.251371, Alt.=818.930176m. Speed=12.528000m/h.</desc>
<speed>3.480000</speed>
</trkpt>
<trkpt lat="43.185078" lon="19.252542">
<ele>773.2</ele>
<time>2012-04-29T12:38:35Z</time>
<desc>lat.=43.185078, lon.=19.252542, Alt.=808.164551m. Speed=11.628000m/h.</desc>
<speed>3.230000</speed>
</trkpt>
<trkpt lat="43.184410" lon="19.253466">
<ele>753.1</ele>
<time>2012-04-29T12:39:05Z</time>
<desc>lat.=43.184410, lon.=19.253466, Alt.=791.680176m. Speed=9.288000m/h.</desc>
<speed>2.580000</speed>
</trkpt>
<trkpt lat="43.184093" lon="19.255405">
<ele>738.1</ele>
<time>2012-04-29T12:39:40Z</time>
<desc>lat.=43.184093, lon.=19.255405, Alt.=767.477051m. Speed=24.264000m/h.</desc>
<speed>6.740000</speed>
</trkpt>
<trkpt lat="43.183224" lon="19.256987">
<ele>713.9</ele>
<time>2012-04-29T12:40:15Z</time>
<desc>lat.=43.183224, lon.=19.256987, Alt.=747.602051m. Speed=5.796000m/h.</desc>
<speed>1.610000</speed>
</trkpt>
<trkpt lat="43.183521" lon="19.257427">
<ele>711.5</ele>
<time>2012-04-29T12:40:30Z</time>
<desc>lat.=43.183521, lon.=19.257427, Alt.=742.086426m. Speed=13.932000m/h.</desc>
<speed>3.870000</speed>
</trkpt>
<trkpt lat="43.183510" lon="19.257738">
<ele>709.4</ele>
<time>2012-04-29T12:40:35Z</time>
<desc>lat.=43.183510, lon.=19.257738, Alt.=739.758301m. Speed=19.440001m/h.</desc>
<speed>5.400000</speed>
</trkpt>
<trkpt lat="43.182789" lon="19.259060">
<ele>729.0</ele>
<time>2012-04-29T12:41:05Z</time>
<desc>lat.=43.182789, lon.=19.259060, Alt.=732.070801m. Speed=7.596000m/h.</desc>
<speed>2.110000</speed>
</trkpt>
<trkpt lat="43.182819" lon="19.260069">
<ele>737.6</ele>
<time>2012-04-29T12:42:30Z</time>
<desc>lat.=43.182819, lon.=19.260069, Alt.=736.711426m. Speed=2.880000m/h.</desc>
<speed>0.800000</speed>
</trkpt>
<trkpt lat="43.182415" lon="19.259174">
<ele>744.7</ele>
<time>2012-04-29T12:46:45Z</time>
<desc>lat.=43.182415, lon.=19.259174, Alt.=748.836426m. Speed=6.984000m/h.</desc>
<speed>1.940000</speed>
</trkpt>
<trkpt lat="43.180904" lon="19.258663">
<ele>758.6</ele>
<time>2012-04-29T12:47:55Z</time>
<desc>lat.=43.180904, lon.=19.258663, Alt.=772.820801m. Speed=8.280000m/h.</desc>
<speed>2.300000</speed>
</trkpt>
<trkpt lat="43.178764" lon="19.258436">
<ele>776.7</ele>
<time>2012-04-29T12:50:15Z</time>
<desc>lat.=43.178764, lon.=19.258436, Alt.=782.617676m. Speed=3.888000m/h.</desc>
<speed>1.080000</speed>
</trkpt>
<trkpt lat="43.177902" lon="19.259672">
<ele>790.0</ele>
<time>2012-04-29T12:51:15Z</time>
<desc>lat.=43.177902, lon.=19.259672, Alt.=788.805176m. Speed=9.504000m/h.</desc>
<speed>2.640000</speed>
</trkpt>
<trkpt lat="43.177219" lon="19.260073">
<ele>786.0</ele>
<time>2012-04-29T12:51:45Z</time>
<desc>lat.=43.177219, lon.=19.260073, Alt.=791.023926m. Speed=11.844000m/h.</desc>
<speed>3.290000</speed>
</trkpt>
<trkpt lat="43.176037" lon="19.261463">
<ele>787.4</ele>
<time>2012-04-29T12:52:40Z</time>
<desc>lat.=43.176037, lon.=19.261463, Alt.=794.805176m. Speed=6.948000m/h.</desc>
<speed>1.930000</speed>
</trkpt>
<trkpt lat="43.175629" lon="19.262297">
<ele>793.5</ele>
<time>2012-04-29T12:53:20Z</time>
<desc>lat.=43.175629, lon.=19.262297, Alt.=797.383301m. Speed=8.676000m/h.</desc>
<speed>2.410000</speed>
</trkpt>
<trkpt lat="43.175716" lon="19.262962">
<ele>806.7</ele>
<time>2012-04-29T12:53:35Z</time>
<desc>lat.=43.175716, lon.=19.262962, Alt.=797.133301m. Speed=8.568000m/h.</desc>
<speed>2.380000</speed>
</trkpt>
<trkpt lat="43.175312" lon="19.263506">
<ele>801.7</ele>
<time>2012-04-29T12:53:55Z</time>
<desc>lat.=43.175312, lon.=19.263506, Alt.=796.383301m. Speed=6.336000m/h.</desc>
<speed>1.760000</speed>
</trkpt>
<trkpt lat="43.175175" lon="19.264074">
<ele>809.6</ele>
<time>2012-04-29T12:54:15Z</time>
<desc>lat.=43.175175, lon.=19.264074, Alt.=788.320801m. Speed=8.460000m/h.</desc>
<speed>2.350000</speed>
</trkpt>
<trkpt lat="43.174515" lon="19.264965">
<ele>817.9</ele>
<time>2012-04-29T12:55:00Z</time>
<desc>lat.=43.174515, lon.=19.264965, Alt.=798.383301m. Speed=7.956000m/h.</desc>
<speed>2.210000</speed>
</trkpt>
<trkpt lat="43.174355" lon="19.265644">
<ele>831.9</ele>
<time>2012-04-29T12:55:35Z</time>
<desc>lat.=43.174355, lon.=19.265644, Alt.=788.758301m. Speed=0.792000m/h.</desc>
<speed>0.220000</speed>
</trkpt>
<trkpt lat="43.173874" lon="19.266171">
<ele>850.4</ele>
<time>2012-04-29T12:56:30Z</time>
<desc>lat.=43.173874, lon.=19.266171, Alt.=784.383301m. Speed=2.880000m/h.</desc>
<speed>0.800000</speed>
</trkpt>
<trkpt lat="43.173916" lon="19.265598">
<ele>840.0</ele>
<time>2012-04-29T12:57:05Z</time>
<desc>lat.=43.173916, lon.=19.265598, Alt.=796.867676m. Speed=6.840000m/h.</desc>
<speed>1.900000</speed>
</trkpt>
<trkpt lat="43.173748" lon="19.265451">
<ele>844.4</ele>
<time>2012-04-29T12:57:15Z</time>
<desc>lat.=43.173748, lon.=19.265451, Alt.=800.617676m. Speed=6.804000m/h.</desc>
<speed>1.890000</speed>
</trkpt>
<trkpt lat="43.173450" lon="19.265516">
<ele>849.8</ele>
<time>2012-04-29T12:57:30Z</time>
<desc>lat.=43.173450, lon.=19.265516, Alt.=802.461426m. Speed=8.424000m/h.</desc>
<speed>2.340000</speed>
</trkpt>
<trkpt lat="43.172966" lon="19.266020">
<ele>844.5</ele>
<time>2012-04-29T12:57:55Z</time>
<desc>lat.=43.172966, lon.=19.266020, Alt.=803.398926m. Speed=10.116000m/h.</desc>
<speed>2.810000</speed>
</trkpt>
<trkpt lat="43.172619" lon="19.267469">
<ele>852.0</ele>
<time>2012-04-29T12:58:50Z</time>
<desc>lat.=43.172619, lon.=19.267469, Alt.=812.914551m. Speed=7.848000m/h.</desc>
<speed>2.180000</speed>
</trkpt>
<trkpt lat="43.171566" lon="19.268354">
<ele>854.9</ele>
<time>2012-04-29T12:59:50Z</time>
<desc>lat.=43.171566, lon.=19.268354, Alt.=829.070801m. Speed=8.244000m/h.</desc>
<speed>2.290000</speed>
</trkpt>
<trkpt lat="43.171234" lon="19.269531">
<ele>863.7</ele>
<time>2012-04-29T13:00:45Z</time>
<desc>lat.=43.171234, lon.=19.269531, Alt.=835.164551m. Speed=7.092000m/h.</desc>
<speed>1.970000</speed>
</trkpt>
<trkpt lat="43.170933" lon="19.269869">
<ele>876.9</ele>
<time>2012-04-29T13:01:00Z</time>
<desc>lat.=43.170933, lon.=19.269869, Alt.=838.695801m. Speed=12.852000m/h.</desc>
<speed>3.570000</speed>
</trkpt>
<trkpt lat="43.169323" lon="19.269882">
<ele>864.0</ele>
<time>2012-04-29T13:02:00Z</time>
<desc>lat.=43.169323, lon.=19.269882, Alt.=868.711426m. Speed=6.192000m/h.</desc>
<speed>1.720000</speed>
</trkpt>
<trkpt lat="43.169220" lon="19.271345">
<ele>863.4</ele>
<time>2012-04-29T13:02:25Z</time>
<desc>lat.=43.169220, lon.=19.271345, Alt.=869.445801m. Speed=31.572001m/h.</desc>
<speed>8.770000</speed>
</trkpt>
<trkpt lat="43.168919" lon="19.271902">
<ele>868.2</ele>
<time>2012-04-29T13:02:40Z</time>
<desc>lat.=43.168919, lon.=19.271902, Alt.=878.055176m. Speed=9.000000m/h.</desc>
<speed>2.500000</speed>
</trkpt>
<trkpt lat="43.168644" lon="19.273727">
<ele>871.3</ele>
<time>2012-04-29T13:03:20Z</time>
<desc>lat.=43.168644, lon.=19.273727, Alt.=880.555176m. Speed=18.936001m/h.</desc>
<speed>5.260000</speed>
</trkpt>
<trkpt lat="43.168091" lon="19.275204">
<ele>878.5</ele>
<time>2012-04-29T13:04:10Z</time>
<desc>lat.=43.168091, lon.=19.275204, Alt.=887.133301m. Speed=7.200000m/h.</desc>
<speed>2.000000</speed>
</trkpt>
<trkpt lat="43.168713" lon="19.274504">
<ele>886.3</ele>
<time>2012-04-29T13:08:05Z</time>
<desc>lat.=43.168713, lon.=19.274504, Alt.=891.289551m. Speed=9.396000m/h.</desc>
<speed>2.610000</speed>
</trkpt>
<trkpt lat="43.169544" lon="19.272774">
<ele>901.4</ele>
<time>2012-04-29T13:09:25Z</time>
<desc>lat.=43.169544, lon.=19.272774, Alt.=907.570801m. Speed=9.396000m/h.</desc>
<speed>2.610000</speed>
</trkpt>
<trkpt lat="43.169937" lon="19.272394">
<ele>911.0</ele>
<time>2012-04-29T13:09:50Z</time>
<desc>lat.=43.169937, lon.=19.272394, Alt.=910.930176m. Speed=7.704000m/h.</desc>
<speed>2.140000</speed>
</trkpt>
<trkpt lat="43.171066" lon="19.271683">
<ele>921.0</ele>
<time>2012-04-29T13:10:50Z</time>
<desc>lat.=43.171066, lon.=19.271683, Alt.=926.352051m. Speed=8.712000m/h.</desc>
<speed>2.420000</speed>
</trkpt>
<trkpt lat="43.171986" lon="19.271637">
<ele>933.9</ele>
<time>2012-04-29T13:11:35Z</time>
<desc>lat.=43.171986, lon.=19.271637, Alt.=929.758301m. Speed=4.500000m/h.</desc>
<speed>1.250000</speed>
</trkpt>
<trkpt lat="43.172470" lon="19.271067">
<ele>926.8</ele>
<time>2012-04-29T13:12:00Z</time>
<desc>lat.=43.172470, lon.=19.271067, Alt.=933.898926m. Speed=9.252000m/h.</desc>
<speed>2.570000</speed>
</trkpt>
<trkpt lat="43.173485" lon="19.270872">
<ele>942.9</ele>
<time>2012-04-29T13:12:55Z</time>
<desc>lat.=43.173485, lon.=19.270872, Alt.=941.102051m. Speed=3.312000m/h.</desc>
<speed>0.920000</speed>
</trkpt>
<trkpt lat="43.174366" lon="19.269928">
<ele>955.7</ele>
<time>2012-04-29T13:14:05Z</time>
<desc>lat.=43.174366, lon.=19.269928, Alt.=962.195801m. Speed=9.324000m/h.</desc>
<speed>2.590000</speed>
</trkpt>
<trkpt lat="43.174831" lon="19.269970">
<ele>965.5</ele>
<time>2012-04-29T13:14:30Z</time>
<desc>lat.=43.174831, lon.=19.269970, Alt.=968.430176m. Speed=8.820000m/h.</desc>
<speed>2.450000</speed>
</trkpt>
<trkpt lat="43.175713" lon="19.269449">
<ele>966.2</ele>
<time>2012-04-29T13:15:20Z</time>
<desc>lat.=43.175713, lon.=19.269449, Alt.=970.211426m. Speed=4.824000m/h.</desc>
<speed>1.340000</speed>
</trkpt>
<trkpt lat="43.175900" lon="19.269140">
<ele>965.7</ele>
<time>2012-04-29T13:15:40Z</time>
<desc>lat.=43.175900, lon.=19.269140, Alt.=976.273926m. Speed=8.136000m/h.</desc>
<speed>2.260000</speed>
</trkpt>
<trkpt lat="43.176571" lon="19.268986">
<ele>978.1</ele>
<time>2012-04-29T13:16:05Z</time>
<desc>lat.=43.176571, lon.=19.268986, Alt.=984.148926m. Speed=8.748000m/h.</desc>
<speed>2.430000</speed>
</trkpt>
<trkpt lat="43.176945" lon="19.268286">
<ele>971.8</ele>
<time>2012-04-29T13:16:30Z</time>
<desc>lat.=43.176945, lon.=19.268286, Alt.=987.742676m. Speed=8.280000m/h.</desc>
<speed>2.300000</speed>
</trkpt>
<trkpt lat="43.177834" lon="19.268673">
<ele>991.1</ele>
<time>2012-04-29T13:17:15Z</time>
<desc>lat.=43.177834, lon.=19.268673, Alt.=988.414551m. Speed=10.116000m/h.</desc>
<speed>2.810000</speed>
</trkpt>
<trkpt lat="43.178497" lon="19.269199">
<ele>995.5</ele>
<time>2012-04-29T13:17:45Z</time>
<desc>lat.=43.178497, lon.=19.269199, Alt.=989.289551m. Speed=9.360000m/h.</desc>
<speed>2.600000</speed>
</trkpt>
<trkpt lat="43.179211" lon="19.269184">
<ele>992.1</ele>
<time>2012-04-29T13:18:15Z</time>
<desc>lat.=43.179211, lon.=19.269184, Alt.=986.133301m. Speed=9.360000m/h.</desc>
<speed>2.600000</speed>
</trkpt>
<trkpt lat="43.179451" lon="19.269537">
<ele>994.2</ele>
<time>2012-04-29T13:25:45Z</time>
<desc>lat.=43.179451, lon.=19.269537, Alt.=986.789551m. Speed=21.636000m/h.</desc>
<speed>6.010000</speed>
</trkpt>
<trkpt lat="43.180626" lon="19.270020">
<ele>977.0</ele>
<time>2012-04-29T13:26:00Z</time>
<desc>lat.=43.180626, lon.=19.270020, Alt.=980.789551m. Speed=23.903999m/h.</desc>
<speed>6.640000</speed>
</trkpt>
<trkpt lat="43.180531" lon="19.270947">
<ele>989.5</ele>
<time>2012-04-29T13:26:25Z</time>
<desc>lat.=43.180531, lon.=19.270947, Alt.=984.133301m. Speed=10.476000m/h.</desc>
<speed>2.910000</speed>
</trkpt>
<trkpt lat="43.180695" lon="19.272608">
<ele>988.4</ele>
<time>2012-04-29T13:27:00Z</time>
<desc>lat.=43.180695, lon.=19.272608, Alt.=986.523926m. Speed=12.492000m/h.</desc>
<speed>3.470000</speed>
</trkpt>
<trkpt lat="43.180622" lon="19.274080">
<ele>1006.6</ele>
<time>2012-04-29T13:27:35Z</time>
<desc>lat.=43.180622, lon.=19.274080, Alt.=991.055176m. Speed=6.228000m/h.</desc>
<speed>1.730000</speed>
</trkpt>
<trkpt lat="43.181671" lon="19.274773">
<ele>1009.6</ele>
<time>2012-04-29T13:28:30Z</time>
<desc>lat.=43.181671, lon.=19.274773, Alt.=1004.695801m. Speed=8.028000m/h.</desc>
<speed>2.230000</speed>
</trkpt>
<trkpt lat="43.181919" lon="19.275854">
<ele>1019.7</ele>
<time>2012-04-29T13:29:10Z</time>
<desc>lat.=43.181919, lon.=19.275854, Alt.=1011.039551m. Speed=10.836000m/h.</desc>
<speed>3.010000</speed>
</trkpt>
<trkpt lat="43.182499" lon="19.276628">
<ele>1034.8</ele>
<time>2012-04-29T13:29:55Z</time>
<desc>lat.=43.182499, lon.=19.276628, Alt.=1017.555176m. Speed=7.452000m/h.</desc>
<speed>2.070000</speed>
</trkpt>
<trkpt lat="43.182945" lon="19.276852">
<ele>1029.0</ele>
<time>2012-04-29T13:30:20Z</time>
<desc>lat.=43.182945, lon.=19.276852, Alt.=1024.360352m. Speed=7.596000m/h.</desc>
<speed>2.110000</speed>
</trkpt>
<trkpt lat="43.183926" lon="19.276899">
<ele>1023.8</ele>
<time>2012-04-29T13:31:05Z</time>
<desc>lat.=43.183926, lon.=19.276899, Alt.=1021.242676m. Speed=19.908001m/h.</desc>
<speed>5.530000</speed>
</trkpt>
<trkpt lat="43.184238" lon="19.277388">
<ele>1032.3</ele>
<time>2012-04-29T13:31:15Z</time>
<desc>lat.=43.184238, lon.=19.277388, Alt.=1017.336426m. Speed=18.792000m/h.</desc>
<speed>5.220000</speed>
</trkpt>
<trkpt lat="43.184872" lon="19.277754">
<ele>1014.4</ele>
<time>2012-04-29T13:31:30Z</time>
<desc>lat.=43.184872, lon.=19.277754, Alt.=1011.102051m. Speed=14.796000m/h.</desc>
<speed>4.110000</speed>
</trkpt>
<trkpt lat="43.185223" lon="19.278393">
<ele>1012.1</ele>
<time>2012-04-29T13:32:05Z</time>
<desc>lat.=43.185223, lon.=19.278393, Alt.=1004.258301m. Speed=11.232000m/h.</desc>
<speed>3.120000</speed>
</trkpt>
<trkpt lat="43.185658" lon="19.277962">
<ele>996.0</ele>
<time>2012-04-29T13:32:15Z</time>
<desc>lat.=43.185658, lon.=19.277962, Alt.=997.773926m. Speed=30.996000m/h.</desc>
<speed>8.610000</speed>
</trkpt>
<trkpt lat="43.186340" lon="19.276773">
<ele>992.8</ele>
<time>2012-04-29T13:33:05Z</time>
<desc>lat.=43.186340, lon.=19.276773, Alt.=991.305176m. Speed=0.756000m/h.</desc>
<speed>0.210000</speed>
</trkpt>
<trkpt lat="43.187046" lon="19.276249">
<ele>1002.9</ele>
<time>2012-04-29T13:52:20Z</time>
<desc>lat.=43.187046, lon.=19.276249, Alt.=1011.664551m. Speed=0.360000m/h.</desc>
<speed>0.100000</speed>
</trkpt>
<trkpt lat="43.186268" lon="19.276667">
<ele>990.6</ele>
<time>2012-04-29T13:53:55Z</time>
<desc>lat.=43.186268, lon.=19.276667, Alt.=1013.148926m. Speed=13.788000m/h.</desc>
<speed>3.830000</speed>
</trkpt>
<trkpt lat="43.185444" lon="19.277983">
<ele>998.1</ele>
<time>2012-04-29T13:54:35Z</time>
<desc>lat.=43.185444, lon.=19.277983, Alt.=1017.445801m. Speed=9.972000m/h.</desc>
<speed>2.770000</speed>
</trkpt>
<trkpt lat="43.185169" lon="19.278183">
<ele>1007.7</ele>
<time>2012-04-29T13:55:45Z</time>
<desc>lat.=43.185169, lon.=19.278183, Alt.=1023.133301m. Speed=0.324000m/h.</desc>
<speed>0.090000</speed>
</trkpt>
<trkpt lat="43.185635" lon="19.278320">
<ele>1005.9</ele>
<time>2012-04-29T13:57:10Z</time>
<desc>lat.=43.185635, lon.=19.278320, Alt.=1022.398926m. Speed=1.332000m/h.</desc>
<speed>0.370000</speed>
</trkpt>
<trkpt lat="43.185268" lon="19.278229">
<ele>1005.9</ele>
<time>2012-04-29T13:57:45Z</time>
<desc>lat.=43.185268, lon.=19.278229, Alt.=1021.352051m. Speed=5.580000m/h.</desc>
<speed>1.550000</speed>
</trkpt>
<trkpt lat="43.185017" lon="19.277689">
<ele>1009.1</ele>
<time>2012-04-29T13:58:25Z</time>
<desc>lat.=43.185017, lon.=19.277689, Alt.=1024.360352m. Speed=6.084000m/h.</desc>
<speed>1.690000</speed>
</trkpt>
<trkpt lat="43.184303" lon="19.277328">
<ele>1028.0</ele>
<time>2012-04-29T13:59:10Z</time>
<desc>lat.=43.184303, lon.=19.277328, Alt.=1031.422852m. Speed=4.968000m/h.</desc>
<speed>1.380000</speed>
</trkpt>
<trkpt lat="43.183872" lon="19.276762">
<ele>1021.7</ele>
<time>2012-04-29T13:59:55Z</time>
<desc>lat.=43.183872, lon.=19.276762, Alt.=1027.079102m. Speed=5.760000m/h.</desc>
<speed>1.600000</speed>
</trkpt>
<trkpt lat="43.183041" lon="19.276791">
<ele>1025.8</ele>
<time>2012-04-29T14:01:35Z</time>
<desc>lat.=43.183041, lon.=19.276791, Alt.=1026.360352m. Speed=5.040000m/h.</desc>
<speed>1.400000</speed>
</trkpt>
<trkpt lat="43.182491" lon="19.276541">
<ele>1029.0</ele>
<time>2012-04-29T14:02:40Z</time>
<desc>lat.=43.182491, lon.=19.276541, Alt.=1019.930176m. Speed=5.724000m/h.</desc>
<speed>1.590000</speed>
</trkpt>
<trkpt lat="43.182014" lon="19.275774">
<ele>1014.8</ele>
<time>2012-04-29T14:03:45Z</time>
<desc>lat.=43.182014, lon.=19.275774, Alt.=1013.023926m. Speed=5.472000m/h.</desc>
<speed>1.520000</speed>
</trkpt>
<trkpt lat="43.181713" lon="19.274759">
<ele>1008.9</ele>
<time>2012-04-29T14:04:40Z</time>
<desc>lat.=43.181713, lon.=19.274759, Alt.=1004.477051m. Speed=6.084000m/h.</desc>
<speed>1.690000</speed>
</trkpt>
<trkpt lat="43.181229" lon="19.274187">
<ele>1002.0</ele>
<time>2012-04-29T14:05:25Z</time>
<desc>lat.=43.181229, lon.=19.274187, Alt.=1000.961426m. Speed=6.444000m/h.</desc>
<speed>1.790000</speed>
</trkpt>
<trkpt lat="43.180698" lon="19.273884">
<ele>997.9</ele>
<time>2012-04-29T14:06:10Z</time>
<desc>lat.=43.180698, lon.=19.273884, Alt.=998.961426m. Speed=5.580000m/h.</desc>
<speed>1.550000</speed>
</trkpt>
<trkpt lat="43.180630" lon="19.273397">
<ele>992.4</ele>
<time>2012-04-29T14:06:35Z</time>
<desc>lat.=43.180630, lon.=19.273397, Alt.=992.680176m. Speed=4.680000m/h.</desc>
<speed>1.300000</speed>
</trkpt>
<trkpt lat="43.180752" lon="19.272785">
<ele>987.2</ele>
<time>2012-04-29T14:07:15Z</time>
<desc>lat.=43.180752, lon.=19.272785, Alt.=994.148926m. Speed=5.616000m/h.</desc>
<speed>1.560000</speed>
</trkpt>
<trkpt lat="43.180607" lon="19.271692">
<ele>987.6</ele>
<time>2012-04-29T14:08:15Z</time>
<desc>lat.=43.180607, lon.=19.271692, Alt.=985.992676m. Speed=4.248000m/h.</desc>
<speed>1.180000</speed>
</trkpt>
<trkpt lat="43.180744" lon="19.270035">
<ele>975.9</ele>
<time>2012-04-29T14:09:50Z</time>
<desc>lat.=43.180744, lon.=19.270035, Alt.=984.586426m. Speed=6.156000m/h.</desc>
<speed>1.710000</speed>
</trkpt>
<trkpt lat="43.179466" lon="19.269447">
<ele>991.4</ele>
<time>2012-04-29T14:11:45Z</time>
<desc>lat.=43.179466, lon.=19.269447, Alt.=993.039551m. Speed=3.996000m/h.</desc>
<speed>1.110000</speed>
</trkpt>
<trkpt lat="43.179222" lon="19.269100">
<ele>991.1</ele>
<time>2012-04-29T14:12:15Z</time>
<desc>lat.=43.179222, lon.=19.269100, Alt.=995.398926m. Speed=5.400000m/h.</desc>
<speed>1.500000</speed>
</trkpt>
<trkpt lat="43.178596" lon="19.269197">
<ele>994.1</ele>
<time>2012-04-29T14:13:40Z</time>
<desc>lat.=43.178596, lon.=19.269197, Alt.=990.742676m. Speed=5.292000m/h.</desc>
<speed>1.470000</speed>
</trkpt>
<trkpt lat="43.177780" lon="19.268526">
<ele>987.3</ele>
<time>2012-04-29T14:14:50Z</time>
<desc>lat.=43.177780, lon.=19.268526, Alt.=988.664551m. Speed=4.536000m/h.</desc>
<speed>1.260000</speed>
</trkpt>
<trkpt lat="43.177441" lon="19.268539">
<ele>990.9</ele>
<time>2012-04-29T14:15:15Z</time>
<desc>lat.=43.177441, lon.=19.268539, Alt.=982.602051m. Speed=5.328000m/h.</desc>
<speed>1.480000</speed>
</trkpt>
<trkpt lat="43.177067" lon="19.268261">
<ele>975.2</ele>
<time>2012-04-29T14:15:50Z</time>
<desc>lat.=43.177067, lon.=19.268261, Alt.=980.617676m. Speed=5.832000m/h.</desc>
<speed>1.620000</speed>
</trkpt>
<trkpt lat="43.176861" lon="19.268339">
<ele>970.4</ele>
<time>2012-04-29T14:16:05Z</time>
<desc>lat.=43.176861, lon.=19.268339, Alt.=977.836426m. Speed=6.624000m/h.</desc>
<speed>1.840000</speed>
</trkpt>
<trkpt lat="43.176579" lon="19.268917">
<ele>976.8</ele>
<time>2012-04-29T14:16:40Z</time>
<desc>lat.=43.176579, lon.=19.268917, Alt.=973.570801m. Speed=5.292000m/h.</desc>
<speed>1.470000</speed>
</trkpt>
<trkpt lat="43.175900" lon="19.269150">
<ele>965.9</ele>
<time>2012-04-29T14:17:40Z</time>
<desc>lat.=43.175900, lon.=19.269150, Alt.=972.211426m. Speed=5.688000m/h.</desc>
<speed>1.580000</speed>
</trkpt>
<trkpt lat="43.175152" lon="19.269787">
<ele>967.4</ele>
<time>2012-04-29T14:19:50Z</time>
<desc>lat.=43.175152, lon.=19.269787, Alt.=958.211426m. Speed=0.036000m/h.</desc>
<speed>0.010000</speed>
</trkpt>
<trkpt lat="43.173958" lon="19.270082">
<ele>944.2</ele>
<time>2012-04-29T14:22:25Z</time>
<desc>lat.=43.173958, lon.=19.270082, Alt.=954.477051m. Speed=7.632000m/h.</desc>
<speed>2.120000</speed>
</trkpt>
<trkpt lat="43.173492" lon="19.270433">
<ele>934.5</ele>
<time>2012-04-29T14:23:00Z</time>
<desc>lat.=43.173492, lon.=19.270433, Alt.=951.227051m. Speed=5.616000m/h.</desc>
<speed>1.560000</speed>
</trkpt>
<trkpt lat="43.173527" lon="19.270662">
<ele>940.3</ele>
<time>2012-04-29T14:23:20Z</time>
<desc>lat.=43.173527, lon.=19.270662, Alt.=952.523926m. Speed=4.464000m/h.</desc>
<speed>1.240000</speed>
</trkpt>
<trkpt lat="43.173275" lon="19.270885">
<ele>941.4</ele>
<time>2012-04-29T14:23:45Z</time>
<desc>lat.=43.173275, lon.=19.270885, Alt.=948.289551m. Speed=5.472000m/h.</desc>
<speed>1.520000</speed>
</trkpt>
<trkpt lat="43.172432" lon="19.271013">
<ele>926.0</ele>
<time>2012-04-29T14:25:25Z</time>
<desc>lat.=43.172432, lon.=19.271013, Alt.=931.508301m. Speed=5.724000m/h.</desc>
<speed>1.590000</speed>
</trkpt>
<trkpt lat="43.171928" lon="19.271542">
<ele>929.3</ele>
<time>2012-04-29T14:26:10Z</time>
<desc>lat.=43.171928, lon.=19.271542, Alt.=923.242676m. Speed=6.012000m/h.</desc>
<speed>1.670000</speed>
</trkpt>
<trkpt lat="43.170952" lon="19.271677">
<ele>917.9</ele>
<time>2012-04-29T14:27:20Z</time>
<desc>lat.=43.170952, lon.=19.271677, Alt.=914.773926m. Speed=6.156000m/h.</desc>
<speed>1.710000</speed>
</trkpt>
<trkpt lat="43.169479" lon="19.272657">
<ele>897.3</ele>
<time>2012-04-29T14:29:05Z</time>
<desc>lat.=43.169479, lon.=19.272657, Alt.=905.633301m. Speed=5.580000m/h.</desc>
<speed>1.550000</speed>
</trkpt>
<trkpt lat="43.168991" lon="19.273945">
<ele>888.3</ele>
<time>2012-04-29T14:30:20Z</time>
<desc>lat.=43.168991, lon.=19.273945, Alt.=896.898926m. Speed=6.444000m/h.</desc>
<speed>1.790000</speed>
</trkpt>
<trkpt lat="43.167984" lon="19.275312">
<ele>877.7</ele>
<time>2012-04-29T14:31:55Z</time>
<desc>lat.=43.167984, lon.=19.275312, Alt.=886.867676m. Speed=6.264000m/h.</desc>
<speed>1.740000</speed>
</trkpt>
<trkpt lat="43.167137" lon="19.277109">
<ele>887.9</ele>
<time>2012-04-29T14:35:15Z</time>
<desc>lat.=43.167137, lon.=19.277109, Alt.=882.523926m. Speed=5.760000m/h.</desc>
<speed>1.600000</speed>
</trkpt>
<trkpt lat="43.166359" lon="19.277996">
<ele>891.1</ele>
<time>2012-04-29T14:36:30Z</time>
<desc>lat.=43.166359, lon.=19.277996, Alt.=898.336426m. Speed=3.528000m/h.</desc>
<speed>0.980000</speed>
</trkpt>
<trkpt lat="43.165890" lon="19.279213">
<ele>892.6</ele>
<time>2012-04-29T14:37:40Z</time>
<desc>lat.=43.165890, lon.=19.279213, Alt.=903.867676m. Speed=5.544000m/h.</desc>
<speed>1.540000</speed>
</trkpt>
<trkpt lat="43.165771" lon="19.280069">
<ele>894.0</ele>
<time>2012-04-29T14:38:25Z</time>
<desc>lat.=43.165771, lon.=19.280069, Alt.=902.648926m. Speed=5.328000m/h.</desc>
<speed>1.480000</speed>
</trkpt>
<trkpt lat="43.165985" lon="19.282820">
<ele>893.9</ele>
<time>2012-04-29T14:41:20Z</time>
<desc>lat.=43.165985, lon.=19.282820, Alt.=901.398926m. Speed=5.508000m/h.</desc>
<speed>1.530000</speed>
</trkpt>
<trkpt lat="43.166805" lon="19.284830">
<ele>895.9</ele>
<time>2012-04-29T14:43:15Z</time>
<desc>lat.=43.166805, lon.=19.284830, Alt.=893.398926m. Speed=5.328000m/h.</desc>
<speed>1.480000</speed>
</trkpt>
<trkpt lat="43.166454" lon="19.286095">
<ele>899.5</ele>
<time>2012-04-29T14:44:20Z</time>
<desc>lat.=43.166454, lon.=19.286095, Alt.=886.492676m. Speed=5.796000m/h.</desc>
<speed>1.610000</speed>
</trkpt>
<trkpt lat="43.165958" lon="19.286428">
<ele>903.3</ele>
<time>2012-04-29T14:45:25Z</time>
<desc>lat.=43.165958, lon.=19.286428, Alt.=894.836426m. Speed=5.400000m/h.</desc>
<speed>1.500000</speed>
</trkpt>
<trkpt lat="43.165405" lon="19.286356">
<ele>910.6</ele>
<time>2012-04-29T14:46:10Z</time>
<desc>lat.=43.165405, lon.=19.286356, Alt.=908.273926m. Speed=4.536000m/h.</desc>
<speed>1.260000</speed>
</trkpt>
<trkpt lat="43.164486" lon="19.286568">
<ele>903.8</ele>
<time>2012-04-29T14:47:45Z</time>
<desc>lat.=43.164486, lon.=19.286568, Alt.=907.914551m. Speed=6.156000m/h.</desc>
<speed>1.710000</speed>
</trkpt>
<trkpt lat="43.164082" lon="19.286999">
<ele>897.6</ele>
<time>2012-04-29T14:48:20Z</time>
<desc>lat.=43.164082, lon.=19.286999, Alt.=908.586426m. Speed=5.868000m/h.</desc>
<speed>1.630000</speed>
</trkpt>
<trkpt lat="43.163731" lon="19.287756">
<ele>896.2</ele>
<time>2012-04-29T14:49:05Z</time>
<desc>lat.=43.163731, lon.=19.287756, Alt.=899.492676m. Speed=6.048000m/h.</desc>
<speed>1.680000</speed>
</trkpt>
<trkpt lat="43.163280" lon="19.289541">
<ele>887.4</ele>
<time>2012-04-29T14:50:35Z</time>
<desc>lat.=43.163280, lon.=19.289541, Alt.=875.117676m. Speed=6.048000m/h.</desc>
<speed>1.680000</speed>
</trkpt>
<trkpt lat="43.162582" lon="19.290468">
<ele>882.0</ele>
<time>2012-04-29T14:52:05Z</time>
<desc>lat.=43.162582, lon.=19.290468, Alt.=883.586426m. Speed=6.120000m/h.</desc>
<speed>1.700000</speed>
</trkpt>
<trkpt lat="43.162277" lon="19.291706">
<ele>874.5</ele>
<time>2012-04-29T14:53:10Z</time>
<desc>lat.=43.162277, lon.=19.291706, Alt.=868.570801m. Speed=5.796000m/h.</desc>
<speed>1.610000</speed>
</trkpt>
<trkpt lat="43.161377" lon="19.292955">
<ele>863.3</ele>
<time>2012-04-29T14:54:35Z</time>
<desc>lat.=43.161377, lon.=19.292955, Alt.=866.570801m. Speed=5.904000m/h.</desc>
<speed>1.640000</speed>
</trkpt>
<trkpt lat="43.160648" lon="19.294485">
<ele>854.8</ele>
<time>2012-04-29T14:56:05Z</time>
<desc>lat.=43.160648, lon.=19.294485, Alt.=855.852051m. Speed=5.796000m/h.</desc>
<speed>1.610000</speed>
</trkpt>
<trkpt lat="43.160236" lon="19.294691">
<ele>859.1</ele>
<time>2012-04-29T14:56:45Z</time>
<desc>lat.=43.160236, lon.=19.294691, Alt.=855.617676m. Speed=6.048000m/h.</desc>
<speed>1.680000</speed>
</trkpt>
<trkpt lat="43.159859" lon="19.294638">
<ele>856.4</ele>
<time>2012-04-29T14:57:10Z</time>
<desc>lat.=43.159859, lon.=19.294638, Alt.=853.367676m. Speed=5.904000m/h.</desc>
<speed>1.640000</speed>
</trkpt>
<trkpt lat="43.159012" lon="19.293983">
<ele>843.8</ele>
<time>2012-04-29T14:58:15Z</time>
<desc>lat.=43.159012, lon.=19.293983, Alt.=849.805176m. Speed=5.724000m/h.</desc>
<speed>1.590000</speed>
</trkpt>
<trkpt lat="43.158871" lon="19.293531">
<ele>839.5</ele>
<time>2012-04-29T14:58:45Z</time>
<desc>lat.=43.158871, lon.=19.293531, Alt.=842.820801m. Speed=4.500000m/h.</desc>
<speed>1.250000</speed>
</trkpt>
<trkpt lat="43.158978" lon="19.292706">
<ele>829.5</ele>
<time>2012-04-29T15:23:45Z</time>
<desc>lat.=43.158978, lon.=19.292706, Alt.=838.117676m. Speed=0.072000m/h.</desc>
<speed>0.020000</speed>
</trkpt>
</trkseg>
</trk>
</gpx>